createdAt,value
2023-12-05T00:01:18.133Z,3.93
2023-12-05T00:03:46.522Z,3.13
2023-12-05T00:06:15.880Z,3.07
2023-12-05T00:08:44.183Z,2.87
2023-12-05T00:11:13.632Z,2.67
2023-12-05T00:13:42.450Z,2.50
2023-12-05T00:16:12.235Z,2.80
2023-12-05T00:18:45.409Z,2.47
2023-12-05T00:21:13.792Z,2.40
2023-12-05T00:23:42.083Z,2.13
2023-12-05T00:26:10.509Z,1.87
2023-12-05T00:28:38.949Z,2.00
2023-12-05T00:31:07.224Z,2.13
2023-12-05T00:33:36.985Z,1.73
2023-12-05T00:36:07.277Z,1.50
2023-12-05T00:38:35.649Z,1.50
2023-12-05T00:41:03.964Z,1.20
2023-12-05T00:43:32.381Z,1.10
2023-12-05T00:46:00.704Z,1.90
2023-12-05T00:48:29.324Z,1.10
2023-12-05T00:50:57.671Z,1.00
2023-12-05T00:53:27.367Z,1.10
2023-12-05T00:55:56.153Z,0.93
2023-12-05T00:58:24.448Z,0.80
2023-12-05T01:00:52.940Z,1.03
2023-12-05T01:03:21.852Z,1.30
2023-12-05T01:05:50.427Z,1.33
2023-12-05T01:08:18.836Z,1.70
2023-12-05T01:10:48.504Z,1.33
2023-12-05T01:13:16.879Z,1.40
2023-12-05T01:15:45.208Z,1.53
2023-12-05T01:18:13.854Z,1.70
2023-12-05T01:20:42.283Z,1.20
2023-12-05T01:23:10.541Z,1.70
2023-12-05T01:25:38.851Z,1.30
2023-12-05T01:28:08.490Z,1.50
2023-12-05T01:30:37.257Z,1.43
2023-12-05T01:33:05.811Z,1.27
2023-12-05T01:35:34.102Z,1.47
2023-12-05T01:38:03.500Z,1.30
2023-12-05T01:40:32.306Z,1.00
2023-12-05T01:43:00.583Z,1.17
2023-12-05T01:45:30.274Z,1.03
2023-12-05T01:47:58.634Z,1.40
2023-12-05T01:50:28.421Z,1.00
2023-12-05T01:52:59.174Z,1.27
2023-12-05T01:55:29.231Z,1.10
2023-12-05T01:57:57.744Z,1.53
2023-12-05T02:00:26.819Z,1.30
2023-12-05T02:02:58.029Z,1.20
2023-12-05T02:05:27.738Z,1.03
2023-12-05T02:07:56.586Z,1.40
2023-12-05T02:10:25.194Z,1.20
2023-12-05T02:12:55.749Z,1.10
2023-12-05T02:15:25.105Z,1.00
2023-12-05T02:17:59.896Z,1.20
2023-12-05T02:20:30.908Z,0.93
2023-12-05T02:23:14.401Z,1.03
2023-12-05T02:25:56.790Z,0.90
2023-12-05T02:28:26.863Z,1.30
2023-12-05T02:30:56.188Z,1.00
2023-12-05T02:33:25.603Z,0.93
2023-12-05T02:35:59.776Z,0.83
2023-12-05T02:38:32.658Z,0.90
2023-12-05T02:41:05.161Z,0.90
2023-12-05T02:43:38.371Z,0.80
2023-12-05T02:46:10.811Z,0.70
2023-12-05T02:48:39.426Z,0.83
2023-12-05T02:51:08.418Z,0.97
2023-12-05T02:53:36.792Z,0.90
2023-12-05T02:56:06.873Z,0.80
2023-12-05T02:58:36.568Z,0.90
2023-12-05T03:01:04.867Z,0.70
2023-12-05T03:03:33.255Z,0.77
2023-12-05T03:06:01.702Z,0.80
2023-12-05T03:08:29.997Z,0.50
2023-12-05T03:11:03.549Z,0.87
2023-12-05T03:13:36.597Z,0.60
2023-12-05T03:16:05.215Z,0.73
2023-12-05T03:18:33.614Z,0.60
2023-12-05T03:21:02.967Z,0.77
2023-12-05T03:23:31.518Z,0.70
2023-12-05T03:26:00.535Z,0.60
2023-12-05T03:28:28.790Z,0.53
2023-12-05T03:30:59.506Z,0.80
2023-12-05T03:33:27.886Z,0.50
2023-12-05T03:35:56.197Z,0.60
2023-12-05T03:38:24.470Z,0.50
2023-12-05T03:40:52.770Z,0.60
2023-12-05T03:43:21.054Z,0.50
2023-12-05T03:45:50.537Z,0.60
2023-12-05T03:48:20.377Z,0.70
2023-12-05T03:50:48.778Z,0.60
2023-12-05T03:53:17.078Z,0.70
2023-12-05T03:55:45.340Z,0.67
2023-12-05T03:58:13.613Z,0.70
2023-12-05T04:00:41.991Z,0.83
2023-12-05T04:03:10.373Z,0.60
2023-12-05T04:05:40.675Z,1.00
2023-12-05T04:08:08.968Z,0.70
2023-12-05T04:10:37.356Z,0.77
2023-12-05T04:13:06.660Z,0.90
2023-12-05T04:15:35.462Z,0.70
2023-12-05T04:18:03.862Z,0.80
2023-12-05T04:20:32.156Z,0.90
2023-12-05T04:23:01.812Z,0.80
2023-12-05T04:25:30.059Z,0.70
2023-12-05T04:27:58.480Z,0.87
2023-12-05T04:30:26.955Z,1.00
2023-12-05T04:32:55.401Z,0.80
2023-12-05T04:35:24.114Z,0.70
2023-12-05T04:37:52.393Z,0.80
2023-12-05T04:40:22.021Z,0.70
2023-12-05T04:42:50.962Z,0.90
2023-12-05T04:45:19.887Z,0.90
2023-12-05T04:47:48.368Z,0.80
2023-12-05T04:50:17.760Z,1.77
2023-12-05T04:52:46.057Z,1.20
2023-12-05T04:55:14.339Z,0.80
2023-12-05T04:57:44.031Z,1.00
2023-12-05T05:00:14.171Z,1.20
2023-12-05T05:02:42.526Z,1.20
2023-12-05T05:05:11.220Z,0.83
2023-12-05T05:07:41.599Z,1.10
2023-12-05T05:10:10.368Z,0.80
2023-12-05T05:12:39.004Z,1.07
2023-12-05T05:15:10.404Z,1.00
2023-12-05T05:17:39.047Z,0.97
2023-12-05T05:20:08.091Z,0.90
2023-12-05T05:22:37.476Z,0.80
2023-12-05T05:25:06.665Z,0.90
2023-12-05T05:27:35.079Z,0.90
2023-12-05T05:30:03.435Z,0.97
2023-12-05T05:32:33.233Z,0.90
2023-12-05T05:35:02.788Z,0.90
2023-12-05T05:37:31.117Z,1.00
2023-12-05T05:39:59.532Z,1.27
2023-12-05T05:42:27.951Z,1.27
2023-12-05T05:44:56.262Z,1.10
2023-12-05T05:47:24.633Z,0.97
2023-12-05T05:49:54.304Z,1.53
2023-12-05T05:52:22.681Z,1.20
2023-12-05T05:54:51.689Z,1.23
2023-12-05T05:57:20.137Z,1.40
2023-12-05T05:59:48.561Z,1.23
2023-12-05T06:02:17.204Z,1.20
2023-12-05T06:04:45.770Z,1.30
2023-12-05T06:07:15.999Z,1.00
2023-12-05T06:09:46.574Z,1.57
2023-12-05T06:12:14.814Z,1.20
2023-12-05T06:14:43.034Z,1.20
2023-12-05T06:17:11.326Z,1.33
2023-12-05T06:19:39.599Z,1.17
2023-12-05T06:22:07.903Z,1.50
2023-12-05T06:24:37.539Z,0.90
2023-12-05T06:27:06.447Z,1.17
2023-12-05T06:29:34.733Z,1.50
2023-12-05T06:32:03.063Z,1.20
2023-12-05T06:34:31.363Z,1.17
2023-12-05T06:36:59.692Z,1.07
2023-12-05T06:39:29.286Z,1.20
2023-12-05T06:41:59.058Z,1.40
2023-12-05T06:44:27.780Z,1.20
2023-12-05T06:46:56.011Z,1.20
2023-12-05T06:49:24.548Z,1.03
2023-12-05T06:52:01.369Z,1.30
2023-12-05T06:54:29.643Z,1.17
2023-12-05T06:56:59.271Z,1.50
2023-12-05T06:59:27.631Z,1.40
2023-12-05T07:01:56.930Z,1.40
2023-12-05T07:04:27.485Z,1.73
2023-12-05T07:06:56.189Z,1.67
2023-12-05T07:09:24.556Z,1.77
2023-12-05T07:11:52.845Z,1.60
2023-12-05T07:14:22.432Z,2.20
2023-12-05T07:16:50.660Z,1.60
2023-12-05T07:19:20.746Z,1.60
2023-12-05T07:21:51.276Z,1.90
2023-12-05T07:24:19.527Z,1.70
2023-12-05T07:26:49.467Z,1.33
2023-12-05T07:29:17.721Z,1.47
2023-12-05T07:31:47.365Z,1.43
2023-12-05T07:34:15.708Z,1.70
2023-12-05T07:36:44.171Z,1.53
2023-12-05T07:39:13.895Z,1.80
2023-12-05T07:41:42.441Z,2.00
2023-12-05T07:44:10.678Z,1.40
2023-12-05T07:46:38.953Z,1.53
2023-12-05T07:49:08.788Z,1.47
2023-12-05T07:51:37.269Z,1.50
2023-12-05T07:54:06.344Z,1.40
2023-12-05T07:56:34.832Z,1.23
2023-12-05T07:59:03.130Z,1.00
2023-12-05T08:01:31.497Z,1.10
2023-12-05T08:04:02.674Z,1.20
2023-12-05T08:06:32.377Z,1.30
2023-12-05T08:09:01.748Z,1.60
2023-12-05T08:11:30.068Z,1.20
2023-12-05T08:13:58.381Z,1.60
2023-12-05T08:16:26.658Z,1.37
2023-12-05T08:18:54.966Z,1.30
2023-12-05T08:21:23.311Z,1.40
2023-12-05T08:23:52.983Z,1.30
2023-12-05T08:26:21.247Z,1.13
2023-12-05T08:28:49.460Z,1.30
2023-12-05T08:31:17.715Z,1.10
2023-12-05T08:33:46.120Z,1.40
2023-12-05T08:36:14.647Z,1.40
2023-12-05T08:38:44.016Z,1.10
2023-12-05T08:41:18.795Z,1.33
2023-12-05T08:43:47.154Z,1.17
2023-12-05T08:46:15.444Z,1.30
2023-12-05T08:48:44.046Z,1.43
2023-12-05T08:51:14.870Z,1.57
2023-12-05T08:53:44.204Z,1.50
2023-12-05T08:56:14.147Z,1.13
2023-12-05T08:58:43.585Z,1.47
2023-12-05T09:01:12.852Z,1.43
2023-12-05T09:03:41.233Z,1.50
2023-12-05T09:06:09.989Z,1.60
2023-12-05T09:08:38.576Z,1.30
2023-12-05T09:11:07.199Z,1.50
2023-12-05T09:13:36.751Z,1.70
2023-12-05T09:16:05.057Z,1.30
2023-12-05T09:18:33.671Z,2.17
2023-12-05T09:21:01.944Z,1.20
2023-12-05T09:23:30.407Z,1.20
2023-12-05T09:25:58.644Z,1.50
2023-12-05T09:28:26.877Z,1.30
2023-12-05T09:30:56.545Z,1.00
2023-12-05T09:33:24.813Z,1.33
2023-12-05T09:35:53.072Z,1.77
2023-12-05T09:38:21.300Z,1.20
2023-12-05T09:40:49.994Z,2.00
2023-12-05T09:43:18.819Z,1.20
2023-12-05T09:45:47.626Z,1.60
2023-12-05T09:48:20.035Z,1.10
2023-12-05T09:50:48.681Z,1.20
2023-12-05T09:53:17.182Z,1.30
2023-12-05T09:55:46.022Z,1.20
2023-12-05T09:58:15.733Z,1.50
2023-12-05T10:00:45.694Z,1.30
2023-12-05T10:03:17.400Z,1.50
2023-12-05T10:05:49.722Z,1.70
2023-12-05T10:08:18.765Z,1.20
2023-12-05T10:10:48.971Z,1.50
2023-12-05T10:13:17.190Z,1.13
2023-12-05T10:15:45.632Z,1.50
2023-12-05T10:18:13.936Z,1.87
2023-12-05T10:20:44.515Z,1.40
2023-12-05T10:23:14.225Z,1.10
2023-12-05T10:25:44.489Z,1.20
2023-12-05T10:28:13.794Z,1.00
2023-12-05T10:30:42.488Z,1.20
2023-12-05T10:33:10.948Z,1.40
2023-12-05T10:35:42.220Z,1.23
2023-12-05T10:38:12.146Z,1.67
2023-12-05T10:40:55.124Z,1.30
2023-12-05T10:43:24.134Z,1.33
2023-12-05T10:45:52.524Z,1.30
2023-12-05T10:48:21.564Z,1.03
2023-12-05T10:50:50.397Z,1.30
2023-12-05T10:53:18.813Z,1.50
2023-12-05T10:55:47.318Z,1.10
2023-12-05T10:58:16.982Z,1.40
2023-12-05T11:00:45.324Z,1.40
2023-12-05T11:03:16.089Z,1.00
2023-12-05T11:05:44.350Z,1.27
2023-12-05T11:08:12.683Z,1.23
2023-12-05T11:10:40.910Z,1.10
2023-12-05T11:13:09.260Z,1.10
2023-12-05T11:15:39.018Z,1.87
2023-12-05T11:18:13.319Z,1.30
2023-12-05T11:20:58.258Z,1.47
2023-12-05T11:23:34.286Z,1.13
2023-12-05T11:26:05.670Z,1.57
2023-12-05T11:28:44.532Z,1.20
2023-12-05T11:31:17.508Z,1.23
2023-12-05T11:34:03.856Z,1.10
2023-12-05T11:36:37.226Z,1.10
2023-12-05T11:39:05.607Z,1.90
2023-12-05T11:41:33.866Z,1.50
2023-12-05T11:44:21.279Z,1.30
2023-12-05T11:46:52.087Z,1.30
2023-12-05T11:49:29.883Z,1.50
2023-12-05T11:52:09.449Z,1.30
2023-12-05T11:54:37.778Z,1.53
2023-12-05T11:57:13.147Z,1.00
2023-12-05T11:59:42.185Z,1.10
2023-12-05T12:02:13.902Z,1.00
2023-12-05T12:04:42.362Z,1.10
2023-12-05T12:07:10.742Z,1.43
2023-12-05T12:09:40.399Z,1.23
2023-12-05T12:12:09.173Z,1.03
2023-12-05T12:14:40.313Z,1.27
2023-12-05T12:17:12.592Z,1.40
2023-12-05T12:19:42.372Z,1.20
2023-12-05T12:22:11.551Z,1.27
2023-12-05T12:24:40.925Z,1.30
2023-12-05T12:27:09.768Z,1.03
2023-12-05T12:29:38.180Z,1.23
2023-12-05T12:32:07.796Z,1.30
2023-12-05T12:34:36.294Z,1.40
2023-12-05T12:37:13.987Z,1.33
2023-12-05T12:39:46.856Z,1.00
2023-12-05T12:42:15.746Z,1.40
2023-12-05T12:44:44.465Z,1.17
2023-12-05T12:47:15.159Z,1.10
2023-12-05T12:49:43.936Z,1.30
2023-12-05T12:52:13.823Z,1.00
2023-12-05T12:54:45.052Z,1.17
2023-12-05T12:57:14.255Z,1.40
2023-12-05T12:59:43.090Z,1.57
2023-12-05T13:02:11.405Z,1.20
2023-12-05T13:04:40.840Z,1.37
2023-12-05T13:07:09.403Z,1.40
2023-12-05T13:09:41.065Z,1.50
2023-12-05T13:12:10.860Z,1.30
2023-12-05T13:14:41.711Z,1.37
2023-12-05T13:17:10.256Z,1.43
2023-12-05T13:19:42.900Z,1.50
2023-12-05T13:22:11.225Z,2.10
2023-12-05T13:24:40.843Z,2.20
2023-12-05T13:27:12.078Z,1.93
2023-12-05T13:29:41.024Z,1.40
2023-12-05T13:32:09.573Z,0.70
2023-12-05T13:34:37.811Z,2.90
2023-12-05T13:37:06.381Z,1.33
2023-12-05T13:39:35.649Z,3.30
2023-12-05T13:42:07.902Z,3.13
2023-12-05T13:44:40.794Z,1.90
2023-12-05T13:47:09.091Z,2.30
2023-12-05T13:49:37.648Z,3.10
2023-12-05T13:52:06.274Z,3.07
2023-12-05T13:54:35.320Z,3.40
2023-12-05T13:57:05.019Z,3.30
2023-12-05T13:59:33.618Z,2.90
2023-12-05T14:02:02.280Z,2.83
2023-12-05T14:04:31.068Z,3.47
2023-12-05T14:07:00.444Z,2.47
2023-12-05T14:09:28.749Z,1.70
2023-12-05T14:11:57.002Z,3.13
2023-12-05T14:14:26.563Z,3.93
2023-12-05T14:16:54.787Z,3.90
2023-12-05T14:19:23.087Z,2.17
2023-12-05T14:21:51.511Z,3.80
2023-12-05T14:24:20.243Z,2.50
2023-12-05T14:26:48.542Z,5.00
2023-12-05T14:29:16.827Z,4.50
2023-12-05T14:31:46.541Z,5.60
2023-12-05T14:34:14.858Z,4.73
2023-12-05T14:36:43.389Z,3.10
2023-12-05T14:39:11.766Z,4.97
2023-12-05T14:41:40.265Z,4.13
2023-12-05T14:44:08.628Z,4.90
2023-12-05T14:46:39.988Z,3.80
2023-12-05T14:49:11.096Z,6.30
2023-12-05T14:51:39.995Z,6.53
2023-12-05T14:54:08.660Z,4.30
2023-12-05T14:56:37.006Z,3.60
2023-12-05T14:59:05.378Z,4.30
2023-12-05T15:01:33.791Z,5.13
2023-12-05T15:04:02.377Z,3.77
2023-12-05T15:06:32.036Z,4.80
2023-12-05T15:09:00.977Z,5.30
2023-12-05T15:11:32.567Z,4.37
2023-12-05T15:14:00.824Z,5.40
2023-12-05T15:16:29.394Z,5.67
2023-12-05T15:18:57.725Z,5.37
2023-12-05T15:21:27.404Z,5.37
2023-12-05T15:23:58.473Z,4.90
2023-12-05T15:26:27.592Z,4.67
2023-12-05T15:28:56.869Z,4.10
2023-12-05T15:31:25.157Z,3.90
2023-12-05T15:33:55.976Z,3.90
2023-12-05T15:36:24.493Z,4.70
2023-12-05T15:38:52.814Z,5.63
2023-12-05T15:41:23.323Z,4.10
2023-12-05T15:43:52.332Z,4.30
2023-12-05T15:46:26.769Z,5.13
2023-12-05T15:48:55.175Z,5.13
2023-12-05T15:51:23.569Z,4.83
2023-12-05T15:53:51.902Z,4.17
2023-12-05T15:56:21.864Z,5.03
2023-12-05T15:58:51.245Z,5.90
2023-12-05T16:01:19.669Z,3.70
2023-12-05T16:03:48.783Z,4.83
2023-12-05T16:06:17.117Z,4.33
2023-12-05T16:08:45.408Z,3.60
2023-12-05T16:11:16.204Z,3.37
2023-12-05T16:13:48.342Z,3.50
2023-12-05T16:16:16.619Z,3.97
2023-12-05T16:18:44.966Z,3.13
2023-12-05T16:21:13.329Z,3.93
2023-12-05T16:23:43.242Z,4.07
2023-12-05T16:26:10.580Z,3.10
2023-12-05T16:28:39.134Z,3.53
2023-12-05T16:31:09.252Z,3.30
2023-12-05T16:33:37.571Z,2.97
2023-12-05T16:36:05.976Z,3.23
2023-12-05T16:38:34.197Z,3.77
2023-12-05T16:41:02.470Z,3.23
2023-12-05T16:43:30.700Z,2.90
2023-12-05T16:45:59.197Z,2.90
2023-12-05T16:48:28.824Z,2.27
2023-12-05T16:50:57.115Z,2.80
2023-12-05T16:53:25.355Z,2.93
2023-12-05T16:55:53.719Z,3.07
2023-12-05T16:58:22.181Z,3.00
2023-12-05T17:00:50.562Z,3.40
2023-12-05T17:03:18.962Z,2.80
2023-12-05T17:05:48.591Z,3.67
2023-12-05T17:08:16.795Z,3.37
2023-12-05T17:10:45.010Z,3.07
2023-12-05T17:13:13.487Z,3.73
2023-12-05T17:15:43.361Z,3.40
2023-12-05T17:18:12.336Z,4.00
2023-12-05T17:20:40.579Z,3.60
2023-12-05T17:23:10.222Z,3.77
2023-12-05T17:25:38.422Z,3.63
2023-12-05T17:28:07.036Z,4.20
2023-12-05T17:30:35.829Z,4.33
2023-12-05T17:33:04.577Z,4.70
2023-12-05T17:35:32.839Z,3.47
2023-12-05T17:38:01.202Z,4.80
2023-12-05T17:40:30.832Z,4.67
2023-12-05T17:42:59.113Z,4.30
2023-12-05T17:45:27.441Z,5.73
2023-12-05T17:47:55.865Z,4.37
2023-12-05T17:50:24.568Z,4.57
2023-12-05T17:52:53.600Z,5.20
2023-12-05T17:55:23.018Z,5.60
2023-12-05T17:57:53.735Z,6.43
2023-12-05T18:00:22.215Z,3.90
2023-12-05T18:02:50.485Z,5.10
2023-12-05T18:05:19.000Z,6.33
2023-12-05T18:07:55.463Z,5.60
2023-12-05T18:10:26.881Z,5.40
2023-12-05T18:12:56.616Z,6.97
2023-12-05T18:15:24.981Z,4.77
2023-12-05T18:17:53.354Z,7.30
2023-12-05T18:20:21.720Z,6.97
2023-12-05T18:22:50.338Z,7.87
2023-12-05T18:25:20.435Z,7.80
2023-12-05T18:27:51.207Z,7.67
2023-12-05T18:30:21.058Z,8.77
2023-12-05T18:32:49.677Z,7.20
2023-12-05T18:35:18.062Z,5.80
2023-12-05T18:37:46.455Z,7.10
2023-12-05T18:40:14.862Z,6.87
2023-12-05T18:42:43.754Z,5.97
2023-12-05T18:45:12.814Z,5.10
2023-12-05T18:47:42.461Z,5.80
2023-12-05T18:50:11.254Z,5.70
2023-12-05T18:52:39.747Z,6.50
2023-12-05T18:55:08.316Z,6.43
2023-12-05T18:57:38.124Z,7.13
2023-12-05T19:00:07.809Z,5.93
2023-12-05T19:02:36.180Z,5.70
2023-12-05T19:05:05.965Z,5.40
2023-12-05T19:07:34.298Z,5.63
2023-12-05T19:10:02.667Z,5.97
2023-12-05T19:12:30.972Z,5.10
2023-12-05T19:14:59.398Z,5.13
2023-12-05T19:17:27.668Z,5.30
2023-12-05T19:19:56.049Z,4.87
2023-12-05T19:22:25.665Z,5.03
2023-12-05T19:24:54.358Z,4.30
2023-12-05T19:27:23.150Z,4.27
2023-12-05T19:29:52.988Z,3.37
2023-12-05T19:32:21.301Z,3.90
2023-12-05T19:34:50.397Z,4.10
2023-12-05T19:37:19.626Z,4.20
2023-12-05T19:39:49.335Z,4.60
2023-12-05T19:42:18.910Z,4.47
2023-12-05T19:44:47.479Z,3.90
2023-12-05T19:47:22.158Z,3.77
2023-12-05T19:49:50.562Z,4.00
2023-12-05T19:52:18.950Z,5.13
2023-12-05T19:54:48.580Z,3.97
2023-12-05T19:57:17.030Z,4.83
2023-12-05T19:59:46.147Z,4.43
2023-12-05T20:02:14.484Z,5.60
2023-12-05T20:04:43.437Z,4.43
2023-12-05T20:07:11.789Z,5.50
2023-12-05T20:09:40.170Z,5.47
2023-12-05T20:12:09.975Z,5.60
2023-12-05T20:14:38.422Z,6.67
2023-12-05T20:17:06.698Z,6.47
2023-12-05T20:19:35.113Z,7.10
2023-12-05T20:22:03.537Z,7.13
2023-12-05T20:24:31.832Z,7.90
2023-12-05T20:27:00.058Z,7.97
2023-12-05T20:29:29.704Z,7.30
2023-12-05T20:31:57.950Z,7.10
2023-12-05T20:34:26.273Z,6.43
2023-12-05T20:36:54.565Z,7.70
2023-12-05T20:39:25.668Z,6.57
2023-12-05T20:41:54.016Z,6.07
2023-12-05T20:44:22.323Z,4.50
2023-12-05T20:46:51.882Z,8.87
2023-12-05T20:49:20.366Z,11.00
2023-12-05T20:51:48.685Z,9.33
2023-12-05T20:54:16.946Z,11.70
2023-12-05T20:56:45.755Z,7.83
2023-12-05T20:59:14.028Z,5.10
2023-12-05T21:01:42.435Z,13.17
2023-12-05T21:04:12.252Z,15.03
2023-12-05T21:06:49.878Z,11.50
2023-12-05T21:09:19.252Z,16.30
2023-12-05T21:11:47.662Z,15.40
2023-12-05T21:14:15.999Z,17.73
2023-12-05T21:16:44.364Z,17.00
2023-12-05T21:19:14.190Z,18.27
2023-12-05T21:21:42.542Z,15.30
2023-12-05T21:24:10.828Z,16.37
2023-12-05T21:26:39.144Z,16.73
2023-12-05T21:29:07.489Z,19.17
2023-12-05T21:31:35.997Z,19.90
2023-12-05T21:34:04.918Z,16.57
2023-12-05T21:36:35.742Z,20.60
2023-12-05T21:39:04.949Z,21.20
2023-12-05T21:41:33.241Z,23.00
2023-12-05T21:44:01.828Z,17.93
2023-12-05T21:46:31.962Z,18.80
2023-12-05T21:49:01.262Z,15.87
2023-12-05T21:51:32.832Z,19.77
2023-12-05T21:54:03.769Z,10.87
2023-12-05T21:56:33.111Z,17.10
2023-12-05T21:59:01.362Z,18.00
2023-12-05T22:01:34.091Z,14.57
2023-12-05T22:04:02.671Z,14.43
2023-12-05T22:06:31.234Z,15.77
2023-12-05T22:08:59.624Z,11.47
2023-12-05T22:11:29.250Z,13.87
2023-12-05T22:13:57.783Z,14.40
2023-12-05T22:16:26.201Z,10.47
2023-12-05T22:18:54.688Z,12.80
2023-12-05T22:21:23.156Z,15.70
2023-12-05T22:23:52.477Z,12.00
2023-12-05T22:26:21.316Z,12.83
2023-12-05T22:28:51.105Z,11.40
2023-12-05T22:31:24.762Z,12.93
2023-12-05T22:33:53.247Z,14.50
2023-12-05T22:36:22.614Z,8.40
2023-12-05T22:38:50.870Z,16.97
2023-12-05T22:41:19.124Z,9.40
2023-12-05T22:43:48.956Z,10.30
2023-12-05T22:46:19.918Z,12.50
2023-12-05T22:48:48.390Z,14.67
2023-12-05T22:51:16.656Z,18.00
2023-12-05T22:53:44.921Z,13.13
2023-12-05T22:56:13.294Z,17.10
2023-12-05T22:58:41.595Z,20.13
2023-12-05T23:01:10.073Z,16.80
2023-12-05T23:03:40.477Z,18.40
2023-12-05T23:06:09.276Z,18.03
2023-12-05T23:08:37.602Z,19.80
2023-12-05T23:11:06.129Z,17.80
2023-12-05T23:13:34.387Z,11.20
2023-12-05T23:16:02.780Z,14.67
2023-12-05T23:18:31.266Z,16.80
2023-12-05T23:21:02.055Z,19.90
2023-12-05T23:23:30.933Z,20.83
2023-12-05T23:25:59.304Z,16.63
2023-12-05T23:28:27.677Z,19.13
2023-12-05T23:30:56.020Z,10.27
2023-12-05T23:33:24.509Z,20.30
2023-12-05T23:35:52.852Z,21.67
2023-12-05T23:38:22.555Z,24.63
2023-12-05T23:40:50.843Z,24.13
2023-12-05T23:43:19.190Z,24.83
2023-12-05T23:45:47.472Z,23.43
2023-12-05T23:48:15.977Z,21.03
2023-12-05T23:50:44.313Z,25.40
2023-12-05T23:53:12.598Z,11.33
2023-12-05T23:55:43.349Z,13.80
2023-12-05T23:58:11.605Z,9.23
